createdAt,value
2023-03-27T00:00:31.418Z,96.21
2023-03-27T00:01:03.837Z,96.31
2023-03-27T00:01:36.344Z,96.11
2023-03-27T00:02:08.995Z,95.68
2023-03-27T00:02:41.434Z,95.48
2023-03-27T00:03:13.837Z,95.27
2023-03-27T00:03:46.393Z,95.10
2023-03-27T00:04:18.962Z,95.21
2023-03-27T00:04:51.275Z,95.10
2023-03-27T00:05:23.737Z,95.31
2023-03-27T00:05:56.226Z,95.31
2023-03-27T00:06:28.686Z,95.52
2023-03-27T00:07:01.118Z,95.79
2023-03-27T00:07:33.588Z,95.94
2023-03-27T00:08:06.082Z,96.00
2023-03-27T00:08:38.615Z,95.89
2023-03-27T00:09:11.198Z,95.79
2023-03-27T00:09:43.660Z,95.79
2023-03-27T00:10:16.071Z,95.73
2023-03-27T00:10:48.559Z,95.68
2023-03-27T00:11:21.017Z,95.89
2023-03-27T00:11:53.466Z,95.89
2023-03-27T00:12:26.071Z,95.79
2023-03-27T00:12:58.636Z,95.89
2023-03-27T00:13:31.053Z,96.00
2023-03-27T00:14:04.537Z,95.89
2023-03-27T00:14:36.982Z,96.00
2023-03-27T00:15:09.443Z,95.89
2023-03-27T00:15:41.932Z,95.58
2023-03-27T00:16:14.421Z,95.37
2023-03-27T00:16:46.905Z,95.58
2023-03-27T00:17:38.868Z,95.68
2023-03-27T00:18:11.315Z,95.68
2023-03-27T00:18:43.782Z,95.94
2023-03-27T00:19:16.229Z,96.00
2023-03-27T00:19:48.693Z,95.89
2023-03-27T00:20:21.157Z,95.79
2023-03-27T00:20:53.876Z,95.79
2023-03-27T00:21:26.178Z,95.68
2023-03-27T00:21:58.506Z,95.58
2023-03-27T00:22:30.969Z,95.68
2023-03-27T00:23:03.454Z,95.68
2023-03-27T00:23:35.917Z,96.00
2023-03-27T00:24:08.352Z,96.00
2023-03-27T00:24:40.799Z,95.89
2023-03-27T00:25:13.358Z,95.79
2023-03-27T00:25:45.780Z,95.79
2023-03-27T00:26:18.233Z,96.00
2023-03-27T00:26:50.678Z,96.00
2023-03-27T00:27:23.181Z,95.89
2023-03-27T00:27:55.647Z,95.79
2023-03-27T00:28:28.087Z,95.58
2023-03-27T00:29:00.613Z,95.89
2023-03-27T00:29:33.108Z,95.89
2023-03-27T00:30:05.624Z,95.89
2023-03-27T00:30:38.146Z,95.68
2023-03-27T00:31:10.810Z,95.68
2023-03-27T00:31:43.054Z,96.11
2023-03-27T00:32:15.503Z,96.21
2023-03-27T00:32:48.183Z,96.42
2023-03-27T00:33:20.624Z,96.42
2023-03-27T00:33:53.081Z,96.31
2023-03-27T00:34:25.568Z,96.21
2023-03-27T00:34:57.987Z,96.25
2023-03-27T00:35:30.506Z,96.25
2023-03-27T00:36:03.031Z,96.15
2023-03-27T00:36:35.416Z,96.04
2023-03-27T00:37:07.959Z,96.15
2023-03-27T00:37:40.416Z,96.15
2023-03-27T00:38:12.843Z,96.15
2023-03-27T00:38:45.392Z,96.56
2023-03-27T00:39:17.877Z,96.88
2023-03-27T00:39:50.328Z,96.88
2023-03-27T00:40:22.821Z,96.77
2023-03-27T00:40:55.467Z,96.77
2023-03-27T00:41:27.792Z,96.88
2023-03-27T00:42:00.208Z,97.09
2023-03-27T00:42:32.664Z,96.98
2023-03-27T00:43:05.140Z,96.98
2023-03-27T00:43:37.585Z,96.98
2023-03-27T00:44:10.121Z,97.19
2023-03-27T00:44:42.622Z,97.30
2023-03-27T00:45:15.232Z,97.19
2023-03-27T00:45:47.709Z,97.19
2023-03-27T00:46:20.254Z,97.40
2023-03-27T00:46:52.693Z,97.40
2023-03-27T00:47:25.256Z,97.30
2023-03-27T00:47:57.685Z,97.19
2023-03-27T00:48:30.144Z,97.30
2023-03-27T00:49:02.662Z,97.19
2023-03-27T00:49:35.135Z,96.98
2023-03-27T00:50:07.648Z,96.77
2023-03-27T00:50:40.069Z,96.77
2023-03-27T00:51:12.558Z,97.19
2023-03-27T00:51:45.056Z,97.19
2023-03-27T00:52:17.497Z,97.30
2023-03-27T00:52:50.007Z,97.30
2023-03-27T00:53:22.498Z,97.40
2023-03-27T00:53:54.984Z,97.50
2023-03-27T00:54:27.505Z,97.71
2023-03-27T00:55:00.051Z,97.81
2023-03-27T00:55:32.557Z,97.81
2023-03-27T00:56:05.051Z,97.81
2023-03-27T00:56:37.550Z,97.75
2023-03-27T00:57:10.061Z,97.92
2023-03-27T00:57:42.458Z,97.86
2023-03-27T00:58:15.080Z,97.75
2023-03-27T00:58:47.632Z,97.97
2023-03-27T00:59:20.080Z,97.97
2023-03-27T00:59:52.555Z,97.86
2023-03-27T01:00:24.995Z,97.75
2023-03-27T01:00:57.708Z,97.97
2023-03-27T01:01:29.957Z,98.18
2023-03-27T01:02:02.422Z,98.07
2023-03-27T01:02:34.892Z,98.18
2023-03-27T01:03:07.380Z,98.28
2023-03-27T01:03:39.837Z,98.38
2023-03-27T01:04:12.238Z,98.34
2023-03-27T01:04:44.678Z,98.13
2023-03-27T01:05:17.107Z,98.07
2023-03-27T01:05:49.584Z,98.02
2023-03-27T01:06:22.067Z,97.92
2023-03-27T01:06:54.547Z,97.92
2023-03-27T01:07:27.004Z,97.81
2023-03-27T01:08:00.673Z,97.92
2023-03-27T01:08:31.921Z,98.02
2023-03-27T01:09:04.350Z,98.13
2023-03-27T01:09:36.810Z,98.13
2023-03-27T01:10:09.284Z,98.02
2023-03-27T01:10:41.762Z,98.23
2023-03-27T01:11:15.169Z,98.23
2023-03-27T01:11:47.627Z,98.44
2023-03-27T01:12:20.085Z,98.23
2023-03-27T01:12:52.687Z,98.13
2023-03-27T01:13:25.172Z,97.97
2023-03-27T01:13:57.645Z,97.86
2023-03-27T01:14:30.089Z,97.97
2023-03-27T01:15:02.529Z,97.97
2023-03-27T01:15:35.070Z,97.97
2023-03-27T01:16:07.601Z,97.97
2023-03-27T01:16:39.965Z,97.97
2023-03-27T01:17:12.521Z,97.97
2023-03-27T01:17:45.114Z,97.86
2023-03-27T01:18:17.554Z,97.97
2023-03-27T01:18:50.017Z,98.07
2023-03-27T01:19:22.496Z,98.07
2023-03-27T01:19:54.929Z,98.07
2023-03-27T01:20:27.413Z,98.18
2023-03-27T01:20:59.970Z,98.18
2023-03-27T01:21:32.355Z,98.07
2023-03-27T01:22:04.842Z,97.97
2023-03-27T01:22:37.392Z,98.07
2023-03-27T01:23:09.799Z,98.38
2023-03-27T01:24:00.124Z,98.28
2023-03-27T01:24:14.826Z,98.28
2023-03-27T01:24:47.948Z,98.07
2023-03-27T01:25:20.472Z,98.07
2023-03-27T01:25:53.012Z,98.07
2023-03-27T01:26:36.308Z,98.07
2023-03-27T01:26:58.036Z,98.07
2023-03-27T01:27:30.404Z,97.97
2023-03-27T01:28:03.053Z,97.86
2023-03-27T01:28:35.397Z,97.97
2023-03-27T01:29:07.886Z,97.86
2023-03-27T01:29:40.354Z,97.75
2023-03-27T01:30:12.799Z,97.86
2023-03-27T01:30:45.267Z,97.86
2023-03-27T01:31:17.855Z,97.86
2023-03-27T01:31:50.337Z,97.97
2023-03-27T01:32:22.794Z,97.97
2023-03-27T01:32:55.252Z,98.07
2023-03-27T01:33:27.696Z,97.97
2023-03-27T01:34:00.234Z,97.97
2023-03-27T01:34:32.677Z,97.97
2023-03-27T01:35:05.794Z,97.97
2023-03-27T01:35:38.316Z,97.97
2023-03-27T01:36:10.701Z,97.97
2023-03-27T01:36:43.167Z,97.97
2023-03-27T01:37:15.825Z,98.07
2023-03-27T01:37:48.299Z,98.07
2023-03-27T01:38:20.749Z,98.38
2023-03-27T01:38:53.183Z,98.49
2023-03-27T01:39:25.668Z,98.49
2023-03-27T01:39:58.122Z,98.28
2023-03-27T01:40:30.666Z,98.18
2023-03-27T01:41:03.152Z,98.18
2023-03-27T01:41:35.610Z,98.18
2023-03-27T01:42:08.054Z,98.07
2023-03-27T01:42:40.544Z,98.07
2023-03-27T01:43:13.003Z,98.07
2023-03-27T01:43:45.436Z,98.32
2023-03-27T01:44:17.915Z,98.53
2023-03-27T01:44:50.377Z,98.63
2023-03-27T01:45:22.854Z,98.63
2023-03-27T01:45:55.352Z,98.63
2023-03-27T01:46:27.777Z,98.63
2023-03-27T01:47:00.299Z,98.95
2023-03-27T01:47:32.726Z,99.16
2023-03-27T01:48:05.216Z,99.05
2023-03-27T01:48:37.672Z,98.95
2023-03-27T01:49:10.125Z,99.26
2023-03-27T01:49:42.593Z,99.37
2023-03-27T01:50:15.083Z,99.16
2023-03-27T01:50:47.556Z,99.16
2023-03-27T01:51:19.961Z,99.05
2023-03-27T01:51:52.479Z,99.16
2023-03-27T01:52:25.011Z,99.16
2023-03-27T01:52:57.474Z,99.57
2023-03-27T01:53:29.922Z,99.79
2023-03-27T01:54:02.464Z,99.57
2023-03-27T01:54:34.895Z,99.57
2023-03-27T01:55:07.340Z,99.53
2023-03-27T01:55:39.776Z,99.57
2023-03-27T01:56:12.236Z,99.37
2023-03-27T01:56:44.738Z,99.26
2023-03-27T01:57:18.055Z,99.16
2023-03-27T01:57:50.592Z,99.05
2023-03-27T01:58:22.872Z,99.05
2023-03-27T01:58:55.380Z,98.95
2023-03-27T01:59:27.827Z,98.85
2023-03-27T02:00:17.989Z,99.05
2023-03-27T02:00:52.194Z,99.05
2023-03-27T02:01:05.591Z,98.95
2023-03-27T02:01:37.833Z,98.95
2023-03-27T02:02:10.228Z,98.85
2023-03-27T02:02:42.740Z,98.89
2023-03-27T02:03:15.192Z,99.20
2023-03-27T02:03:47.688Z,99.31
2023-03-27T02:04:20.210Z,99.20
2023-03-27T02:04:52.655Z,99.31
2023-03-27T02:05:25.096Z,99.41
2023-03-27T02:05:57.556Z,99.73
2023-03-27T02:06:30.035Z,99.83
2023-03-27T02:07:02.502Z,99.73
2023-03-27T02:07:35.029Z,99.73
2023-03-27T02:08:07.530Z,99.73
2023-03-27T02:08:39.957Z,99.73
2023-03-27T02:09:12.999Z,99.93
2023-03-27T02:09:45.516Z,99.83
2023-03-27T02:10:18.005Z,99.73
2023-03-27T02:10:50.422Z,99.73
2023-03-27T02:11:22.884Z,99.77
2023-03-27T02:11:55.392Z,99.77
2023-03-27T02:12:27.828Z,99.98
2023-03-27T02:13:00.372Z,99.98
2023-03-27T02:13:32.828Z,99.88
2023-03-27T02:14:05.322Z,99.88
2023-03-27T02:14:37.836Z,99.98
2023-03-27T02:15:23.082Z,99.99
2023-03-27T02:15:42.790Z,99.99
2023-03-27T02:16:15.394Z,99.99
2023-03-27T02:16:47.888Z,99.99
2023-03-27T02:17:20.263Z,99.99
2023-03-27T02:17:52.783Z,99.99
2023-03-27T02:18:25.191Z,99.99
2023-03-27T02:18:57.684Z,99.99
2023-03-27T02:19:30.166Z,99.99
2023-03-27T02:20:02.613Z,99.99
2023-03-27T02:20:35.058Z,99.99
2023-03-27T02:21:07.557Z,99.99
2023-03-27T02:21:40.031Z,99.99
2023-03-27T02:22:12.535Z,99.99
2023-03-27T02:22:45.017Z,99.99
2023-03-27T02:23:17.709Z,99.99
2023-03-27T02:23:50.197Z,99.99
2023-03-27T02:24:22.739Z,99.99
2023-03-27T02:24:55.212Z,99.99
2023-03-27T02:25:27.666Z,99.99
2023-03-27T02:26:00.155Z,99.99
2023-03-27T02:26:32.618Z,99.99
2023-03-27T02:27:05.090Z,99.99
2023-03-27T02:27:37.532Z,99.99
2023-03-27T02:28:10.117Z,99.99
2023-03-27T02:28:42.572Z,99.99
2023-03-27T02:29:15.034Z,99.99
2023-03-27T02:29:47.491Z,99.99
2023-03-27T02:30:19.961Z,99.99
2023-03-27T02:31:30.682Z,99.99
2023-03-27T02:31:32.480Z,99.99
2023-03-27T02:31:57.544Z,99.99
2023-03-27T02:32:30.056Z,99.99
2023-03-27T02:33:02.499Z,99.99
2023-03-27T02:33:34.924Z,99.99
2023-03-27T02:34:07.382Z,99.99
2023-03-27T02:34:39.857Z,99.99
2023-03-27T02:35:12.361Z,99.99
2023-03-27T02:35:44.880Z,99.99
2023-03-27T02:36:17.324Z,99.99
2023-03-27T02:36:49.834Z,99.99
2023-03-27T02:37:22.307Z,99.99
2023-03-27T02:37:54.815Z,99.89
2023-03-27T02:38:27.273Z,99.89
2023-03-27T02:38:59.726Z,99.68
2023-03-27T02:39:32.258Z,99.57
2023-03-27T02:40:04.726Z,99.57
2023-03-27T02:40:40.377Z,99.47
2023-03-27T02:41:09.793Z,99.37
2023-03-27T02:41:42.288Z,99.37
2023-03-27T02:42:14.773Z,99.68
2023-03-27T02:42:47.342Z,99.68
2023-03-27T02:43:19.919Z,99.57
2023-03-27T02:43:52.368Z,99.57
2023-03-27T02:44:24.851Z,99.79
2023-03-27T02:44:57.324Z,99.89
2023-03-27T02:45:29.889Z,99.99
2023-03-27T02:46:02.404Z,99.99
2023-03-27T02:46:34.795Z,99.89
2023-03-27T02:47:07.272Z,99.99
2023-03-27T02:47:39.755Z,99.99
2023-03-27T02:48:12.251Z,99.99
2023-03-27T02:48:44.712Z,99.99
2023-03-27T02:49:17.183Z,99.99
2023-03-27T02:49:49.641Z,99.99
2023-03-27T02:50:22.139Z,99.99
2023-03-27T02:50:54.824Z,99.99
2023-03-27T02:51:27.027Z,99.79
2023-03-27T02:51:59.473Z,99.99
2023-03-27T02:52:31.967Z,99.99
2023-03-27T02:53:04.444Z,99.99
2023-03-27T02:53:36.894Z,99.99
2023-03-27T02:54:09.350Z,99.99
2023-03-27T02:54:41.880Z,99.89
2023-03-27T02:55:14.445Z,99.79
2023-03-27T02:55:46.923Z,99.89
2023-03-27T02:56:19.380Z,99.89
2023-03-27T02:56:51.891Z,99.89
2023-03-27T02:57:25.184Z,99.99
2023-03-27T02:57:56.801Z,99.99
2023-03-27T02:58:29.220Z,99.99
2023-03-27T02:59:01.691Z,99.89
2023-03-27T02:59:34.213Z,99.79
2023-03-27T03:00:06.706Z,99.68
2023-03-27T03:00:39.170Z,99.89
2023-03-27T03:01:11.729Z,99.68
2023-03-27T03:01:44.179Z,99.57
2023-03-27T03:02:16.633Z,99.57
2023-03-27T03:02:49.150Z,99.68
2023-03-27T03:03:21.642Z,99.57
2023-03-27T03:03:54.157Z,99.57
2023-03-27T03:04:26.615Z,99.57
2023-03-27T03:04:59.062Z,99.79
2023-03-27T03:05:31.516Z,99.68
2023-03-27T03:06:04.053Z,99.68
2023-03-27T03:06:36.504Z,99.68
2023-03-27T03:07:09.108Z,99.79
2023-03-27T03:07:41.555Z,99.79
2023-03-27T03:08:14.024Z,99.89
2023-03-27T03:08:46.510Z,99.79
2023-03-27T03:09:19.100Z,99.68
2023-03-27T03:09:51.557Z,99.47
2023-03-27T03:10:23.993Z,99.37
2023-03-27T03:10:56.688Z,99.47
2023-03-27T03:11:29.014Z,99.68
2023-03-27T03:12:01.482Z,99.68
2023-03-27T03:12:33.988Z,99.57
2023-03-27T03:13:06.439Z,99.47
2023-03-27T03:13:38.932Z,99.37
2023-03-27T03:14:11.451Z,99.37
2023-03-27T03:14:43.920Z,99.47
2023-03-27T03:15:16.366Z,99.41
2023-03-27T03:15:50.458Z,99.31
2023-03-27T03:16:21.505Z,99.31
2023-03-27T03:16:53.994Z,99.41
2023-03-27T03:17:26.463Z,99.31
2023-03-27T03:17:58.913Z,99.52
2023-03-27T03:18:31.367Z,99.62
2023-03-27T03:19:03.841Z,99.83
2023-03-27T03:19:36.280Z,99.73
2023-03-27T03:20:08.707Z,99.62
2023-03-27T03:20:41.148Z,99.93
2023-03-27T03:21:13.714Z,99.89
2023-03-27T03:21:46.192Z,99.99
2023-03-27T03:22:18.635Z,99.99
2023-03-27T03:22:51.144Z,99.83
2023-03-27T03:23:23.557Z,99.73
2023-03-27T03:23:58.772Z,99.83
2023-03-27T03:24:28.497Z,99.83
2023-03-27T03:25:00.951Z,99.73
2023-03-27T03:25:33.433Z,99.93
2023-03-27T03:26:05.880Z,99.93
2023-03-27T03:26:38.417Z,99.93
2023-03-27T03:27:10.913Z,99.93
2023-03-27T03:27:43.385Z,99.99
2023-03-27T03:28:15.836Z,99.99
2023-03-27T03:29:00.743Z,99.93
2023-03-27T03:29:20.841Z,99.83
2023-03-27T03:29:53.292Z,99.83
2023-03-27T03:30:25.808Z,99.73
2023-03-27T03:30:58.402Z,99.73
2023-03-27T03:31:30.687Z,99.62
2023-03-27T03:32:03.180Z,99.62
2023-03-27T03:32:35.706Z,99.52
2023-03-27T03:33:08.282Z,99.52
2023-03-27T03:33:40.736Z,99.52
2023-03-27T03:34:13.212Z,99.52
2023-03-27T03:34:45.662Z,99.62
2023-03-27T03:35:18.131Z,99.62
2023-03-27T03:35:50.707Z,99.62
2023-03-27T03:36:23.155Z,99.83
2023-03-27T03:36:55.618Z,99.93
2023-03-27T03:37:28.064Z,99.73
2023-03-27T03:38:00.636Z,99.73
2023-03-27T03:38:38.185Z,99.73
2023-03-27T03:39:05.628Z,99.62
2023-03-27T03:39:38.054Z,99.73
2023-03-27T03:40:10.514Z,99.62
2023-03-27T03:40:42.968Z,99.62
2023-03-27T03:41:15.423Z,99.62
2023-03-27T03:41:47.871Z,99.62
2023-03-27T03:42:23.295Z,99.41
2023-03-27T03:42:52.890Z,99.41
2023-03-27T03:43:25.338Z,99.41
2023-03-27T03:43:57.781Z,99.31
2023-03-27T03:44:30.259Z,99.41
2023-03-27T03:45:02.730Z,99.31
2023-03-27T03:45:35.203Z,99.20
2023-03-27T03:46:07.757Z,99.10
2023-03-27T03:46:40.353Z,99.31
2023-03-27T03:47:12.772Z,99.20
2023-03-27T03:47:45.317Z,99.20
2023-03-27T03:48:17.763Z,99.10
2023-03-27T03:48:50.358Z,99.20
2023-03-27T03:49:22.753Z,99.20
2023-03-27T03:49:55.223Z,99.10
2023-03-27T03:50:27.741Z,99.10
2023-03-27T03:51:00.195Z,99.10
2023-03-27T03:51:32.648Z,99.10
2023-03-27T03:52:05.226Z,98.89
2023-03-27T03:52:37.689Z,98.89
2023-03-27T03:53:10.190Z,98.79
2023-03-27T03:53:42.654Z,98.79
2023-03-27T03:54:15.106Z,98.79
2023-03-27T03:54:47.534Z,98.89
2023-03-27T03:55:19.985Z,99.10
2023-03-27T03:55:52.449Z,99.10
2023-03-27T03:56:24.940Z,99.10
2023-03-27T03:56:57.442Z,99.20
2023-03-27T03:57:29.873Z,99.10
2023-03-27T03:58:02.346Z,99.20
2023-03-27T03:58:35.285Z,99.41
2023-03-27T03:59:07.314Z,99.52
2023-03-27T03:59:39.848Z,99.52
2023-03-27T04:00:12.362Z,99.52
2023-03-27T04:00:44.841Z,99.62
2023-03-27T04:01:17.316Z,99.52
2023-03-27T04:01:49.736Z,99.41
2023-03-27T04:02:22.289Z,99.41
2023-03-27T04:02:54.813Z,99.20
2023-03-27T04:03:27.952Z,99.20
2023-03-27T04:04:00.333Z,99.20
2023-03-27T04:04:32.777Z,99.10
2023-03-27T04:05:08.970Z,98.99
2023-03-27T04:05:37.759Z,98.89
2023-03-27T04:06:10.202Z,98.89
2023-03-27T04:06:42.654Z,98.99
2023-03-27T04:07:15.140Z,98.89
2023-03-27T04:07:47.616Z,98.79
2023-03-27T04:08:20.090Z,98.79
2023-03-27T04:08:52.530Z,98.68
2023-03-27T04:09:24.994Z,98.68
2023-03-27T04:09:57.473Z,98.68
2023-03-27T04:10:29.936Z,98.68
2023-03-27T04:11:02.377Z,98.79
2023-03-27T04:11:34.840Z,98.89
2023-03-27T04:12:07.280Z,98.99
2023-03-27T04:12:39.756Z,98.89
2023-03-27T04:13:12.256Z,98.79
2023-03-27T04:13:51.889Z,98.99
2023-03-27T04:14:24.331Z,99.10
2023-03-27T04:14:56.806Z,99.20
2023-03-27T04:15:29.336Z,99.31
2023-03-27T04:16:02.081Z,99.20
2023-03-27T04:16:34.354Z,99.10
2023-03-27T04:17:06.919Z,99.10
2023-03-27T04:17:47.087Z,99.20
2023-03-27T04:18:19.687Z,99.10
2023-03-27T04:18:52.025Z,99.10
2023-03-27T04:19:24.387Z,98.99
2023-03-27T04:19:56.865Z,98.79
2023-03-27T04:20:29.283Z,98.79
2023-03-27T04:21:01.723Z,98.89
2023-03-27T04:21:34.189Z,98.99
2023-03-27T04:22:06.880Z,99.10
2023-03-27T04:22:39.378Z,98.99
2023-03-27T04:23:11.844Z,98.89
2023-03-27T04:23:44.414Z,98.79
2023-03-27T04:24:16.913Z,98.79
2023-03-27T04:24:49.355Z,98.79
2023-03-27T04:25:21.896Z,98.68
2023-03-27T04:25:54.413Z,98.89
2023-03-27T04:26:26.869Z,98.89
2023-03-27T04:26:59.326Z,98.89
2023-03-27T04:27:31.857Z,98.89
2023-03-27T04:28:04.370Z,98.79
2023-03-27T04:28:36.893Z,98.99
2023-03-27T04:29:09.384Z,99.20
2023-03-27T04:29:41.948Z,99.31
2023-03-27T04:30:14.453Z,99.10
2023-03-27T04:30:46.979Z,99.10
2023-03-27T04:31:19.478Z,99.10
2023-03-27T04:31:52.078Z,99.10
2023-03-27T04:32:24.520Z,98.99
2023-03-27T04:32:56.958Z,98.89
2023-03-27T04:33:30.605Z,98.89
2023-03-27T04:34:01.898Z,99.20
2023-03-27T04:34:34.399Z,99.41
2023-03-27T04:35:06.908Z,99.41
2023-03-27T04:35:39.525Z,99.35
2023-03-27T04:36:12.029Z,99.25
2023-03-27T04:36:44.489Z,99.15
2023-03-27T04:37:16.937Z,99.15
2023-03-27T04:37:49.418Z,99.15
2023-03-27T04:38:21.877Z,99.25
2023-03-27T04:38:54.413Z,99.25
2023-03-27T04:39:26.901Z,99.31
2023-03-27T04:39:59.379Z,99.35
2023-03-27T04:40:31.831Z,99.46
2023-03-27T04:41:04.263Z,99.35
2023-03-27T04:41:37.361Z,99.46
2023-03-27T04:42:09.814Z,99.46
2023-03-27T04:42:42.352Z,99.56
2023-03-27T04:43:14.816Z,99.66
2023-03-27T04:43:47.310Z,99.66
2023-03-27T04:44:19.795Z,99.56
2023-03-27T04:44:52.246Z,99.52
2023-03-27T04:45:24.722Z,99.46
2023-03-27T04:45:57.236Z,99.66
2023-03-27T04:46:29.840Z,99.56
2023-03-27T04:47:02.346Z,99.56
2023-03-27T04:47:34.735Z,99.46
2023-03-27T04:48:07.347Z,99.35
2023-03-27T04:48:39.807Z,99.46
2023-03-27T04:49:12.328Z,99.52
2023-03-27T04:49:44.823Z,99.52
2023-03-27T04:50:17.302Z,99.62
2023-03-27T04:50:49.849Z,99.62
2023-03-27T04:51:22.331Z,99.52
2023-03-27T04:51:54.797Z,99.41
2023-03-27T04:52:27.233Z,99.62
2023-03-27T04:52:59.952Z,99.52
2023-03-27T04:53:32.406Z,99.41
2023-03-27T04:54:04.989Z,99.31
2023-03-27T04:54:37.380Z,99.31
2023-03-27T04:55:09.961Z,99.52
2023-03-27T04:55:42.428Z,99.41
2023-03-27T04:56:14.934Z,99.31
2023-03-27T04:56:47.496Z,99.20
2023-03-27T04:57:19.999Z,99.10
2023-03-27T04:57:52.371Z,98.99
2023-03-27T04:58:24.830Z,99.10
2023-03-27T04:58:57.324Z,98.99
2023-03-27T04:59:29.731Z,98.89
2023-03-27T05:00:02.305Z,98.89
2023-03-27T05:00:34.717Z,99.10
2023-03-27T05:01:07.223Z,99.20
2023-03-27T05:01:39.777Z,99.10
2023-03-27T05:02:12.164Z,98.99
2023-03-27T05:02:44.684Z,98.99
2023-03-27T05:03:17.182Z,98.99
2023-03-27T05:03:49.691Z,98.89
2023-03-27T05:04:22.097Z,98.79
2023-03-27T05:04:54.617Z,98.68
2023-03-27T05:05:27.077Z,98.68
2023-03-27T05:05:59.569Z,98.89
2023-03-27T05:06:32.061Z,99.10
2023-03-27T05:07:04.545Z,98.99
2023-03-27T05:07:36.975Z,98.79
2023-03-27T05:08:09.491Z,98.79
2023-03-27T05:08:41.971Z,98.89
2023-03-27T05:09:14.490Z,98.89
2023-03-27T05:09:47.093Z,98.89
2023-03-27T05:10:21.942Z,98.79
2023-03-27T05:10:52.168Z,98.68
2023-03-27T05:11:24.587Z,98.79
2023-03-27T05:11:57.074Z,98.79
2023-03-27T05:12:29.510Z,98.68
2023-03-27T05:13:02.001Z,98.58
2023-03-27T05:13:34.504Z,98.47
2023-03-27T05:14:07.006Z,98.58
2023-03-27T05:14:39.505Z,98.68
2023-03-27T05:15:11.970Z,98.68
2023-03-27T05:15:44.422Z,98.68
2023-03-27T05:16:17.048Z,98.79
2023-03-27T05:16:49.579Z,98.79
2023-03-27T05:17:22.031Z,98.79
2023-03-27T05:17:54.842Z,98.79
2023-03-27T05:18:26.988Z,98.68
2023-03-27T05:18:59.499Z,98.68
2023-03-27T05:19:31.991Z,98.68
2023-03-27T05:20:04.473Z,98.89
2023-03-27T05:20:37.003Z,98.89
2023-03-27T05:21:09.493Z,98.89
2023-03-27T05:21:41.959Z,98.89
2023-03-27T05:22:14.531Z,98.79
2023-03-27T05:22:47.023Z,98.68
2023-03-27T05:23:19.525Z,98.68
2023-03-27T05:23:52.018Z,98.58
2023-03-27T05:24:24.488Z,98.58
2023-03-27T05:24:57.010Z,98.79
2023-03-27T05:25:29.569Z,98.79
2023-03-27T05:26:02.104Z,98.89
2023-03-27T05:26:34.761Z,98.89
2023-03-27T05:27:07.058Z,98.89
2023-03-27T05:27:39.606Z,98.89
2023-03-27T05:28:12.109Z,99.10
2023-03-27T05:28:44.580Z,99.10
2023-03-27T05:29:17.169Z,98.99
2023-03-27T05:29:49.703Z,98.89
2023-03-27T05:30:22.137Z,99.10
2023-03-27T05:30:54.795Z,99.20
2023-03-27T05:31:27.110Z,99.20
2023-03-27T05:32:01.300Z,99.20
2023-03-27T05:32:32.050Z,99.31
2023-03-27T05:33:04.502Z,99.20
2023-03-27T05:33:36.910Z,99.10
2023-03-27T05:34:09.448Z,99.10
2023-03-27T05:34:41.886Z,99.10
2023-03-27T05:35:14.331Z,99.10
2023-03-27T05:35:46.855Z,99.20
2023-03-27T05:36:19.225Z,99.20
2023-03-27T05:36:51.719Z,99.16
2023-03-27T05:37:24.933Z,99.26
2023-03-27T05:37:56.623Z,99.26
2023-03-27T05:38:29.240Z,99.16
2023-03-27T05:39:01.675Z,99.16
2023-03-27T05:39:34.084Z,99.05
2023-03-27T05:40:06.566Z,99.05
2023-03-27T05:40:39.040Z,98.95
2023-03-27T05:41:11.684Z,98.95
2023-03-27T05:41:44.151Z,98.85
2023-03-27T05:42:16.669Z,98.69
2023-03-27T05:42:49.148Z,98.69
2023-03-27T05:43:21.621Z,98.69
2023-03-27T05:43:54.098Z,98.59
2023-03-27T05:44:26.617Z,98.59
2023-03-27T05:44:59.100Z,98.59
2023-03-27T05:45:31.644Z,98.49
2023-03-27T05:46:04.162Z,98.28
2023-03-27T05:46:36.625Z,98.18
2023-03-27T05:47:09.079Z,98.23
2023-03-27T05:47:41.550Z,98.23
2023-03-27T05:48:14.009Z,98.23
2023-03-27T05:48:46.447Z,98.13
2023-03-27T05:49:18.958Z,98.02
2023-03-27T05:49:51.385Z,97.92
2023-03-27T05:50:23.852Z,97.81
2023-03-27T05:50:56.495Z,97.81
2023-03-27T05:51:28.713Z,97.71
2023-03-27T05:52:01.167Z,97.81
2023-03-27T05:52:33.643Z,97.61
2023-03-27T05:53:06.102Z,97.56
2023-03-27T05:53:38.654Z,97.56
2023-03-27T05:54:11.220Z,97.46
2023-03-27T05:54:43.691Z,97.46
2023-03-27T05:55:16.202Z,97.46
2023-03-27T05:55:48.685Z,97.25
2023-03-27T05:56:21.137Z,97.25
2023-03-27T05:56:53.663Z,97.14
2023-03-27T05:57:26.221Z,97.04
2023-03-27T05:57:59.579Z,96.94
2023-03-27T05:58:32.061Z,97.10
2023-03-27T05:59:04.554Z,97.04
2023-03-27T05:59:37.232Z,96.89
2023-03-27T06:00:09.818Z,96.79
2023-03-27T06:00:42.555Z,96.58
2023-03-27T06:01:15.034Z,96.48
2023-03-27T06:01:47.532Z,96.37
2023-03-27T06:02:21.331Z,96.37
2023-03-27T06:02:53.150Z,96.26
2023-03-27T06:03:25.719Z,96.16
2023-03-27T06:03:58.291Z,96.26
2023-03-27T06:04:30.689Z,96.26
2023-03-27T06:05:03.120Z,95.95
2023-03-27T06:05:35.652Z,95.85
2023-03-27T06:06:08.154Z,95.54
2023-03-27T06:06:40.617Z,95.54
2023-03-27T06:07:13.102Z,95.75
2023-03-27T06:07:45.647Z,95.85
2023-03-27T06:08:18.084Z,95.70
2023-03-27T06:08:50.593Z,95.70
2023-03-27T06:09:23.042Z,95.50
2023-03-27T06:09:55.537Z,95.39
2023-03-27T06:10:28.852Z,95.39
2023-03-27T06:11:01.356Z,95.08
2023-03-27T06:11:33.846Z,94.87
2023-03-27T06:12:06.365Z,94.87
2023-03-27T06:12:38.834Z,94.82
2023-03-27T06:13:11.312Z,94.82
2023-03-27T06:13:43.771Z,94.51
2023-03-27T06:14:16.277Z,94.51
2023-03-27T06:14:48.741Z,94.51
2023-03-27T06:15:21.219Z,94.20
2023-03-27T06:15:53.815Z,94.20
2023-03-27T06:16:26.251Z,94.47
2023-03-27T06:16:58.734Z,94.26
2023-03-27T06:17:31.296Z,94.06
2023-03-27T06:18:03.827Z,93.64
2023-03-27T06:18:36.248Z,93.43
2023-03-27T06:19:08.758Z,93.33
2023-03-27T06:19:41.256Z,93.12
2023-03-27T06:20:13.799Z,93.12
2023-03-27T06:20:46.282Z,93.23
2023-03-27T06:21:18.738Z,93.12
2023-03-27T06:21:51.216Z,93.12
2023-03-27T06:22:23.720Z,93.43
2023-03-27T06:22:56.201Z,93.23
2023-03-27T06:23:28.759Z,93.01
2023-03-27T06:24:01.230Z,93.33
2023-03-27T06:24:33.696Z,93.33
2023-03-27T06:25:06.254Z,93.12
2023-03-27T06:25:38.691Z,93.27
2023-03-27T06:26:11.198Z,93.27
2023-03-27T06:26:43.750Z,93.58
2023-03-27T06:27:16.224Z,93.79
2023-03-27T06:27:48.681Z,93.68
2023-03-27T06:28:21.113Z,94.10
2023-03-27T06:28:53.548Z,94.10
2023-03-27T06:29:26.031Z,94.10
2023-03-27T06:29:58.474Z,93.85
2023-03-27T06:30:31.935Z,93.85
2023-03-27T06:31:04.447Z,94.10
2023-03-27T06:31:36.882Z,93.85
2023-03-27T06:32:09.338Z,93.74
2023-03-27T06:32:41.821Z,93.54
2023-03-27T06:33:14.277Z,93.43
2023-03-27T06:33:46.739Z,93.23
2023-03-27T06:34:19.355Z,93.33
2023-03-27T06:34:51.836Z,93.33
2023-03-27T06:35:24.390Z,93.01
2023-03-27T06:35:57.007Z,93.12
2023-03-27T06:36:29.519Z,92.91
2023-03-27T06:37:01.939Z,93.33
2023-03-27T06:37:34.372Z,93.43
2023-03-27T06:38:06.821Z,93.54
2023-03-27T06:38:39.325Z,93.43
2023-03-27T06:39:11.831Z,93.07
2023-03-27T06:39:44.398Z,92.97
2023-03-27T06:40:16.921Z,92.86
2023-03-27T06:40:49.368Z,93.18
2023-03-27T06:41:21.809Z,92.66
2023-03-27T06:41:54.280Z,92.45
2023-03-27T06:42:26.770Z,92.45
2023-03-27T06:42:59.283Z,92.61
2023-03-27T06:43:31.776Z,92.20
2023-03-27T06:44:04.237Z,91.99
2023-03-27T06:44:36.717Z,91.89
2023-03-27T06:45:09.178Z,91.43
2023-03-27T06:45:41.665Z,91.43
2023-03-27T06:46:14.287Z,91.39
2023-03-27T06:46:46.925Z,90.52
2023-03-27T06:47:19.496Z,89.75
2023-03-27T06:47:54.833Z,89.25
2023-03-27T06:48:24.359Z,88.39
2023-03-27T06:48:56.825Z,87.99
2023-03-27T06:49:29.240Z,86.50
2023-03-27T06:50:01.811Z,85.39
2023-03-27T06:50:34.290Z,85.35
2023-03-27T06:51:06.757Z,84.59
2023-03-27T06:51:39.236Z,84.30
2023-03-27T06:52:11.708Z,83.13
2023-03-27T06:52:44.234Z,82.06
2023-03-27T06:53:26.524Z,80.58
2023-03-27T06:53:49.208Z,79.10
2023-03-27T06:54:21.698Z,77.97
2023-03-27T06:54:54.221Z,77.42
2023-03-27T06:55:26.694Z,78.03
2023-03-27T06:55:59.335Z,78.20
2023-03-27T06:56:31.690Z,77.14
2023-03-27T06:57:04.300Z,78.33
2023-03-27T06:57:36.711Z,77.27
2023-03-27T06:58:09.159Z,77.00
2023-03-27T06:58:41.690Z,75.62
2023-03-27T06:59:14.163Z,74.57